Terminal Aerodrome Forecast
Issued by NWS

Home | Current Version | Previous Version | Graphics & Text | Print | Product List | Glossary On
Versions: 1 2 3 4 5 6 7 8 9 10 11 12 13 14 15 16 17 18 19 20 21 22 23 24 25
822
FTUS43 KLOT 072108 AAA
TAFDPA
TAF AMD
KDPA 072108Z 0721/0818 23012G18KT P6SM FEW100 BKN200
     FM072300 25010KT P6SM BKN150
     FM080900 28009KT 6SM -SHSN OVC015
      TEMPO 0809/0812 1 1/2SM -SHSN OVC010
     FM081200 29012G19KT 6SM -SHSN OVC015 PROB30 0812/0817 1SM
      -SHSN=

USA.gov is the U.S. government's official web portal to all federal, state and local government web resources and services.